createdAt,value
2023-02-22T00:00:49.457Z,74.35
2023-02-22T00:03:17.958Z,74.24
2023-02-22T00:05:47.489Z,74.36
2023-02-22T00:08:16.808Z,74.28
2023-02-22T00:10:45.691Z,74.44
2023-02-22T00:13:14.838Z,74.23
2023-02-22T00:15:41.513Z,74.59
2023-02-22T00:18:13.675Z,74.49
2023-02-22T00:20:40.985Z,74.51
2023-02-22T00:23:14.276Z,74.66
2023-02-22T00:25:40.936Z,74.55
2023-02-22T00:28:07.969Z,74.83
2023-02-22T00:30:34.734Z,74.57
2023-02-22T00:33:01.804Z,74.79
2023-02-22T00:35:31.212Z,74.96
2023-02-22T00:38:02.326Z,74.84
2023-02-22T00:40:33.267Z,74.96
2023-02-22T00:43:02.286Z,75.06
2023-02-22T00:45:32.018Z,75.10
2023-02-22T00:47:59.440Z,75.13
2023-02-22T00:50:28.487Z,75.23
2023-02-22T00:52:56.957Z,75.12
2023-02-22T00:55:30.012Z,75.26
2023-02-22T00:57:57.537Z,75.21
2023-02-22T01:00:29.216Z,75.33
2023-02-22T01:02:57.189Z,75.26
2023-02-22T01:05:27.271Z,75.38
2023-02-22T01:07:55.887Z,75.31
2023-02-22T01:10:25.216Z,75.38
2023-02-22T01:12:52.688Z,75.53
2023-02-22T01:15:24.047Z,75.39
2023-02-22T01:17:53.543Z,75.54
2023-02-22T01:20:22.872Z,75.66
2023-02-22T01:22:51.078Z,75.77
2023-02-22T01:25:23.631Z,75.83
2023-02-22T01:27:52.526Z,75.87
2023-02-22T01:30:25.405Z,75.96
2023-02-22T01:32:52.998Z,75.90
2023-02-22T01:35:24.919Z,76.00
2023-02-22T01:37:51.831Z,76.21
2023-02-22T01:40:22.817Z,76.34
2023-02-22T01:42:53.006Z,76.21
2023-02-22T01:45:34.643Z,76.39
2023-02-22T01:48:20.207Z,76.38
2023-02-22T01:51:00.476Z,76.29
2023-02-22T01:53:34.576Z,76.50
2023-02-22T01:56:02.949Z,76.48
2023-02-22T01:58:31.802Z,76.43
2023-02-22T02:00:58.681Z,76.42
2023-02-22T02:03:29.731Z,76.63
2023-02-22T02:06:04.059Z,76.67
2023-02-22T02:09:15.755Z,76.60
2023-02-22T02:11:43.319Z,76.66
2023-02-22T02:14:13.858Z,76.75
2023-02-22T02:16:44.158Z,76.78
2023-02-22T02:19:20.538Z,76.75
2023-02-22T02:22:21.676Z,76.76
2023-02-22T02:25:26.509Z,76.78
2023-02-22T02:28:11.569Z,77.00
2023-02-22T02:30:59.561Z,76.94
2023-02-22T02:33:46.404Z,77.08
2023-02-22T02:36:12.861Z,77.17
2023-02-22T02:38:50.486Z,77.09
2023-02-22T02:41:35.596Z,76.99
2023-02-22T02:44:22.640Z,77.15
2023-02-22T02:47:20.090Z,77.22
2023-02-22T02:50:06.924Z,77.12
2023-02-22T02:52:35.641Z,77.11
2023-02-22T02:55:04.720Z,77.14
2023-02-22T02:57:31.150Z,76.98
2023-02-22T02:59:57.933Z,77.22
2023-02-22T03:02:47.420Z,77.08
2023-02-22T03:05:16.943Z,77.11
2023-02-22T03:07:53.626Z,77.25
2023-02-22T03:10:44.437Z,77.12
2023-02-22T03:13:41.951Z,77.34
2023-02-22T03:16:44.204Z,77.35
2023-02-22T03:19:35.573Z,77.36
2023-02-22T03:22:14.859Z,77.33
2023-02-22T03:24:55.968Z,77.61
2023-02-22T03:27:33.826Z,77.59
2023-02-22T03:30:08.505Z,77.52
2023-02-22T03:32:45.753Z,77.62
2023-02-22T03:35:19.305Z,77.58
2023-02-22T03:37:48.980Z,77.59
2023-02-22T03:40:26.193Z,77.55
2023-02-22T03:42:59.448Z,77.61
2023-02-22T03:45:29.298Z,77.52
2023-02-22T03:48:12.172Z,77.63
2023-02-22T03:50:39.275Z,77.78
2023-02-22T03:53:07.428Z,77.66
2023-02-22T03:55:34.914Z,77.92
2023-02-22T03:58:06.878Z,77.96
2023-02-22T04:00:34.832Z,77.91
2023-02-22T04:03:02.549Z,77.98
2023-02-22T04:05:29.126Z,78.00
2023-02-22T04:07:57.260Z,77.89
2023-02-22T04:10:24.559Z,78.07
2023-02-22T04:12:51.427Z,78.07
2023-02-22T04:15:22.086Z,78.08
2023-02-22T04:17:48.775Z,78.36
2023-02-22T04:20:20.795Z,78.23
2023-02-22T04:22:47.675Z,78.22
2023-02-22T04:25:14.942Z,78.29
2023-02-22T04:27:41.804Z,78.31
2023-02-22T04:30:09.994Z,78.02
2023-02-22T04:32:36.526Z,78.31
2023-02-22T04:35:05.049Z,78.30
2023-02-22T04:37:34.948Z,78.48
2023-02-22T04:40:02.231Z,78.21
2023-02-22T04:42:28.949Z,78.37
2023-02-22T04:44:57.691Z,78.41
2023-02-22T04:47:24.438Z,78.50
2023-02-22T04:49:51.196Z,78.53
2023-02-22T04:52:18.864Z,78.47
2023-02-22T04:54:48.912Z,78.34
2023-02-22T04:57:15.501Z,78.45
2023-02-22T04:59:42.069Z,78.43
2023-02-22T05:02:10.153Z,78.58
2023-02-22T05:04:40.660Z,78.22
2023-02-22T05:07:07.170Z,78.33
2023-02-22T05:09:36.264Z,78.62
2023-02-22T05:12:02.733Z,78.53
2023-02-22T05:14:29.616Z,78.53
2023-02-22T05:16:59.463Z,78.54
2023-02-22T05:19:26.201Z,78.64
2023-02-22T05:21:52.678Z,78.82
2023-02-22T05:24:21.635Z,78.65
2023-02-22T05:26:53.247Z,78.84
2023-02-22T05:29:21.029Z,78.52
2023-02-22T05:31:47.598Z,78.77
2023-02-22T05:34:15.695Z,78.98
2023-02-22T05:36:42.425Z,78.79
2023-02-22T05:39:09.195Z,78.65
2023-02-22T05:41:35.816Z,78.76
2023-02-22T05:44:03.364Z,78.86
2023-02-22T05:46:30.158Z,79.06
2023-02-22T05:48:57.040Z,78.93
2023-02-22T05:51:23.956Z,78.78
2023-02-22T05:53:54.539Z,78.90
2023-02-22T05:56:26.367Z,78.87
2023-02-22T05:58:53.119Z,78.77
2023-02-22T06:01:23.172Z,78.97
2023-02-22T06:03:50.516Z,78.94
2023-02-22T06:06:20.516Z,79.23
2023-02-22T06:08:48.561Z,79.14
2023-02-22T06:11:15.208Z,78.93
2023-02-22T06:13:42.337Z,78.95
2023-02-22T06:16:08.918Z,78.95
2023-02-22T06:18:36.492Z,79.14
2023-02-22T06:21:03.354Z,78.89
2023-02-22T06:23:30.129Z,78.92
2023-02-22T06:25:57.105Z,78.93
2023-02-22T06:28:23.890Z,78.93
2023-02-22T06:30:50.712Z,79.20
2023-02-22T06:33:17.646Z,79.15
2023-02-22T06:35:45.288Z,79.06
2023-02-22T06:38:11.905Z,79.00
2023-02-22T06:40:38.690Z,79.01
2023-02-22T06:43:05.264Z,79.06
2023-02-22T06:45:31.972Z,78.99
2023-02-22T06:47:58.713Z,78.78
2023-02-22T06:50:30.211Z,79.02
2023-02-22T06:52:57.711Z,78.78
2023-02-22T06:55:27.702Z,78.94
2023-02-22T06:57:55.103Z,78.70
2023-02-22T07:00:25.100Z,78.71
2023-02-22T07:02:53.801Z,78.47
2023-02-22T07:05:22.626Z,78.59
2023-02-22T07:07:52.634Z,78.53
2023-02-22T07:10:26.313Z,78.19
2023-02-22T07:12:53.199Z,78.35
2023-02-22T07:15:23.539Z,78.22
2023-02-22T07:17:51.262Z,78.10
2023-02-22T07:20:20.945Z,77.90
2023-02-22T07:22:48.984Z,77.80
2023-02-22T07:25:15.720Z,77.55
2023-02-22T07:27:43.308Z,77.58
2023-02-22T07:30:31.088Z,77.40
2023-02-22T07:33:00.651Z,77.54
2023-02-22T07:35:31.564Z,77.40
2023-02-22T07:37:58.138Z,77.38
2023-02-22T07:40:26.420Z,77.06
2023-02-22T07:43:06.830Z,77.20
2023-02-22T07:45:36.028Z,77.14
2023-02-22T07:48:07.315Z,77.34
2023-02-22T07:50:34.963Z,77.37
2023-02-22T07:53:05.946Z,77.22
2023-02-22T07:55:33.672Z,77.07
2023-02-22T07:58:04.431Z,76.89
2023-02-22T08:00:37.385Z,76.77
2023-02-22T08:03:07.502Z,76.44
2023-02-22T08:05:36.292Z,76.45
2023-02-22T08:08:03.808Z,76.25
2023-02-22T08:10:31.453Z,76.22
2023-02-22T08:12:58.384Z,76.09
2023-02-22T08:15:26.599Z,76.02
2023-02-22T08:17:53.724Z,75.97
2023-02-22T08:20:21.055Z,75.85
2023-02-22T08:22:48.205Z,75.71
2023-02-22T08:25:17.250Z,75.53
2023-02-22T08:27:45.310Z,75.42
2023-02-22T08:30:20.732Z,75.30
2023-02-22T08:32:47.665Z,75.32
2023-02-22T08:35:15.567Z,75.20
2023-02-22T08:37:44.364Z,74.88
2023-02-22T08:40:13.955Z,74.75
2023-02-22T08:42:41.416Z,74.66
2023-02-22T08:45:08.388Z,74.43
2023-02-22T08:47:34.910Z,74.44
2023-02-22T08:50:01.772Z,74.11
2023-02-22T08:52:28.405Z,73.92
2023-02-22T08:54:55.823Z,73.75
2023-02-22T08:57:22.623Z,73.72
2023-02-22T08:59:49.289Z,73.52
2023-02-22T09:02:17.836Z,73.70
2023-02-22T09:04:44.950Z,73.41
2023-02-22T09:07:12.815Z,73.52
2023-02-22T09:09:39.353Z,73.58
2023-02-22T09:12:06.017Z,73.41
2023-02-22T09:14:32.548Z,73.56
2023-02-22T09:16:58.974Z,73.19
2023-02-22T09:19:25.560Z,73.14
2023-02-22T09:22:00.085Z,73.16
2023-02-22T09:24:27.388Z,73.19
2023-02-22T09:26:54.395Z,73.15
2023-02-22T09:29:25.836Z,72.93
2023-02-22T09:31:55.391Z,72.85
2023-02-22T09:34:29.797Z,72.65
2023-02-22T09:36:57.997Z,72.60
2023-02-22T09:39:24.965Z,72.47
2023-02-22T09:42:17.532Z,72.14
2023-02-22T09:44:49.532Z,71.81
2023-02-22T09:47:21.937Z,71.82
2023-02-22T09:49:58.639Z,71.67
2023-02-22T09:52:30.848Z,71.11
2023-02-22T09:55:09.200Z,70.91
2023-02-22T09:57:40.816Z,70.71
2023-02-22T10:00:18.207Z,70.62
2023-02-22T10:02:53.846Z,70.24
2023-02-22T10:05:29.855Z,69.80
2023-02-22T10:08:08.411Z,69.35
2023-02-22T10:10:39.283Z,69.27
2023-02-22T10:13:18.122Z,68.85
2023-02-22T10:16:17.216Z,68.83
2023-02-22T10:19:08.000Z,68.49
2023-02-22T10:21:57.574Z,68.10
2023-02-22T10:24:39.648Z,67.56
2023-02-22T10:27:11.873Z,67.24
2023-02-22T10:29:46.528Z,66.84
2023-02-22T10:32:26.056Z,66.57
2023-02-22T10:34:54.649Z,66.17
2023-02-22T10:37:31.093Z,65.80
2023-02-22T10:40:17.447Z,65.20
2023-02-22T10:42:44.590Z,65.01
2023-02-22T10:45:26.813Z,64.94
2023-02-22T10:47:58.858Z,64.51
2023-02-22T10:50:29.648Z,64.44
2023-02-22T10:52:56.459Z,64.23
2023-02-22T10:55:23.154Z,64.42
2023-02-22T10:57:59.098Z,64.21
2023-02-22T11:00:39.749Z,63.96
2023-02-22T11:03:17.982Z,64.08
2023-02-22T11:05:45.016Z,63.80
2023-02-22T11:08:20.834Z,63.96
2023-02-22T11:10:56.735Z,63.71
2023-02-22T11:13:37.506Z,63.38
2023-02-22T11:16:32.679Z,63.51
2023-02-22T11:19:20.660Z,63.40
2023-02-22T11:21:51.522Z,63.28
2023-02-22T11:24:20.019Z,63.03
2023-02-22T11:26:51.641Z,62.51
2023-02-22T11:29:23.267Z,62.35
2023-02-22T11:31:50.633Z,62.18
2023-02-22T11:34:38.149Z,62.08
2023-02-22T11:37:29.928Z,61.74
2023-02-22T11:40:24.949Z,61.73
2023-02-22T11:43:16.062Z,61.88
2023-02-22T11:46:05.973Z,61.78
2023-02-22T11:48:36.637Z,61.50
2023-02-22T11:51:07.673Z,61.88
2023-02-22T11:53:34.106Z,61.78
2023-02-22T11:56:13.977Z,61.42
2023-02-22T11:58:40.581Z,61.33
2023-02-22T12:01:19.999Z,61.24
2023-02-22T12:04:17.347Z,60.81
2023-02-22T12:06:57.120Z,60.24
2023-02-22T12:09:33.177Z,59.97
2023-02-22T12:12:29.710Z,59.61
2023-02-22T12:15:13.974Z,59.16
2023-02-22T12:18:00.487Z,59.57
2023-02-22T12:20:47.742Z,60.12
2023-02-22T12:23:50.991Z,59.86
2023-02-22T12:26:26.455Z,59.05
2023-02-22T12:28:59.432Z,58.64
2023-02-22T12:31:33.989Z,57.90
2023-02-22T12:34:19.945Z,57.41
2023-02-22T12:36:51.823Z,57.22
2023-02-22T12:39:29.299Z,57.50
2023-02-22T12:42:01.032Z,57.92
2023-02-22T12:44:40.123Z,58.26
2023-02-22T12:47:14.410Z,57.89
2023-02-22T12:50:00.582Z,58.00
2023-02-22T12:52:47.304Z,57.92
2023-02-22T12:55:17.493Z,58.25
2023-02-22T12:58:27.644Z,58.03
2023-02-22T13:01:21.323Z,58.30
2023-02-22T13:03:49.429Z,58.14
2023-02-22T13:06:34.995Z,58.32
2023-02-22T13:09:27.076Z,57.92
2023-02-22T13:12:12.426Z,57.78
2023-02-22T13:14:52.299Z,57.64
2023-02-22T13:17:45.334Z,57.96
2023-02-22T13:20:26.797Z,57.84
2023-02-22T13:23:07.517Z,57.49
2023-02-22T13:25:48.107Z,57.62
2023-02-22T13:28:41.688Z,57.37
2023-02-22T13:31:30.241Z,57.00
2023-02-22T13:34:01.385Z,57.09
2023-02-22T13:36:37.749Z,56.78
2023-02-22T13:39:27.967Z,56.32
2023-02-22T13:42:09.387Z,55.94
2023-02-22T13:45:04.202Z,55.89
2023-02-22T13:48:09.384Z,55.98
2023-02-22T13:50:58.324Z,55.92
2023-02-22T13:53:36.861Z,55.86
2023-02-22T13:56:04.194Z,56.16
2023-02-22T13:58:31.077Z,56.09
2023-02-22T14:01:00.031Z,56.15
2023-02-22T14:03:36.401Z,56.15
2023-02-22T14:06:06.376Z,56.43
2023-02-22T14:08:34.134Z,56.51
2023-02-22T14:11:01.138Z,56.85
2023-02-22T14:13:29.905Z,57.31
2023-02-22T14:16:02.728Z,57.57
2023-02-22T14:18:32.659Z,58.06
2023-02-22T14:21:20.437Z,58.03
2023-02-22T14:23:50.005Z,58.09
2023-02-22T14:26:38.255Z,58.33
2023-02-22T14:29:19.066Z,58.22
2023-02-22T14:31:52.814Z,58.34
2023-02-22T14:34:38.710Z,58.38
2023-02-22T14:37:28.753Z,58.57
2023-02-22T14:40:22.616Z,58.57
2023-02-22T14:42:58.419Z,58.81
2023-02-22T14:45:30.101Z,58.74
2023-02-22T14:48:01.441Z,59.02
2023-02-22T14:50:46.143Z,59.32
2023-02-22T14:53:12.539Z,59.27
2023-02-22T14:55:44.199Z,59.17
2023-02-22T14:58:21.843Z,59.40
2023-02-22T15:00:52.895Z,59.48
2023-02-22T15:03:22.702Z,59.63
2023-02-22T15:05:52.039Z,59.68
2023-02-22T15:08:27.424Z,59.67
2023-02-22T15:10:54.770Z,59.91
2023-02-22T15:13:27.632Z,60.11
2023-02-22T15:16:00.481Z,60.43
2023-02-22T15:18:36.117Z,60.08
2023-02-22T15:21:18.379Z,60.46
2023-02-22T15:23:53.899Z,60.72
2023-02-22T15:26:30.162Z,60.55
2023-02-22T15:28:58.693Z,60.71
2023-02-22T15:31:27.569Z,60.93
2023-02-22T15:33:55.361Z,60.93
2023-02-22T15:36:27.830Z,61.12
2023-02-22T15:38:59.903Z,61.13
2023-02-22T15:41:31.749Z,61.33
2023-02-22T15:44:01.776Z,61.63
2023-02-22T15:46:31.181Z,61.37
2023-02-22T15:49:11.674Z,61.80
2023-02-22T15:51:41.492Z,61.74
2023-02-22T15:54:26.483Z,61.71
2023-02-22T15:56:57.919Z,62.08
2023-02-22T15:59:30.471Z,62.33
2023-02-22T16:01:58.808Z,62.40
2023-02-22T16:04:29.312Z,62.56
2023-02-22T16:07:07.807Z,62.49
2023-02-22T16:09:34.565Z,62.64
2023-02-22T16:12:28.004Z,62.94
2023-02-22T16:14:55.654Z,62.77
2023-02-22T16:17:25.959Z,63.06
2023-02-22T16:19:53.269Z,63.13
2023-02-22T16:22:34.682Z,63.22
2023-02-22T16:25:19.140Z,63.46
2023-02-22T16:27:57.851Z,63.39
2023-02-22T16:30:34.354Z,63.76
2023-02-22T16:33:05.530Z,63.65
2023-02-22T16:35:35.478Z,64.03
2023-02-22T16:38:07.610Z,63.89
2023-02-22T16:40:44.805Z,64.17
2023-02-22T16:43:20.601Z,64.25
2023-02-22T16:45:50.322Z,64.43
2023-02-22T16:48:24.195Z,64.50
2023-02-22T16:50:52.610Z,64.63
2023-02-22T16:53:22.257Z,64.85
2023-02-22T16:55:50.974Z,64.92
2023-02-22T16:58:19.500Z,65.13
2023-02-22T17:00:45.943Z,65.38
2023-02-22T17:03:18.132Z,65.91
2023-02-22T17:05:45.232Z,65.68
2023-02-22T17:08:11.837Z,65.92
2023-02-22T17:10:38.739Z,66.28
2023-02-22T17:13:21.311Z,66.20
2023-02-22T17:15:49.415Z,66.24
2023-02-22T17:18:22.729Z,66.37
2023-02-22T17:20:51.135Z,66.53
2023-02-22T17:23:19.157Z,66.53
2023-02-22T17:25:59.326Z,66.67
2023-02-22T17:28:27.184Z,67.02
2023-02-22T17:31:00.801Z,67.08
2023-02-22T17:33:39.995Z,67.26
2023-02-22T17:36:07.273Z,67.29
2023-02-22T17:38:34.914Z,67.44
2023-02-22T17:41:01.960Z,67.29
2023-02-22T17:43:29.016Z,67.38
2023-02-22T17:45:56.488Z,67.72
2023-02-22T17:48:24.292Z,67.83
2023-02-22T17:50:52.112Z,67.82
2023-02-22T17:53:22.667Z,67.64
2023-02-22T17:55:49.728Z,67.59
2023-02-22T17:58:17.203Z,67.70
2023-02-22T18:00:50.102Z,67.89
2023-02-22T18:03:39.590Z,67.73
2023-02-22T18:06:06.887Z,67.93
2023-02-22T18:08:33.686Z,67.91
2023-02-22T18:11:05.512Z,67.78
2023-02-22T18:13:32.871Z,68.29
2023-02-22T18:16:00.220Z,67.89
2023-02-22T18:18:27.114Z,68.04
2023-02-22T18:20:59.412Z,68.18
2023-02-22T18:23:28.321Z,68.42
2023-02-22T18:26:09.690Z,68.15
2023-02-22T18:28:37.662Z,68.31
2023-02-22T18:31:24.272Z,68.44
2023-02-22T18:33:52.997Z,68.19
2023-02-22T18:36:33.489Z,68.31
2023-02-22T18:39:00.262Z,68.67
2023-02-22T18:41:27.049Z,68.66
2023-02-22T18:43:57.958Z,68.64
2023-02-22T18:46:25.111Z,69.03
2023-02-22T18:48:56.217Z,68.90
2023-02-22T18:51:24.244Z,69.26
2023-02-22T18:53:57.126Z,69.16
2023-02-22T18:56:25.624Z,69.18
2023-02-22T18:58:57.356Z,69.29
2023-02-22T19:01:24.307Z,69.20
2023-02-22T19:03:52.219Z,69.57
2023-02-22T19:06:22.620Z,69.42
2023-02-22T19:08:52.238Z,69.62
2023-02-22T19:11:27.422Z,69.63
2023-02-22T19:13:57.600Z,69.55
2023-02-22T19:16:26.826Z,69.75
2023-02-22T19:18:57.212Z,69.89
2023-02-22T19:21:28.358Z,70.01
2023-02-22T19:23:55.357Z,70.05
2023-02-22T19:26:24.843Z,70.34
2023-02-22T19:29:01.704Z,70.08
2023-02-22T19:31:34.099Z,70.21
2023-02-22T19:34:13.596Z,70.06
2023-02-22T19:36:45.140Z,70.33
2023-02-22T19:39:13.495Z,70.15
2023-02-22T19:41:40.315Z,70.57
2023-02-22T19:44:10.478Z,70.35
2023-02-22T19:46:37.867Z,70.34
2023-02-22T19:49:06.464Z,70.63
2023-02-22T19:51:34.127Z,70.69
2023-02-22T19:54:05.095Z,70.84
2023-02-22T19:56:32.630Z,70.77
2023-02-22T19:59:03.198Z,70.69
2023-02-22T20:01:33.232Z,70.97
2023-02-22T20:04:08.500Z,70.84
2023-02-22T20:06:40.348Z,70.98
2023-02-22T20:09:09.613Z,70.89
2023-02-22T20:11:36.414Z,71.15
2023-02-22T20:14:06.690Z,71.23
2023-02-22T20:16:34.703Z,71.20
2023-02-22T20:19:01.732Z,71.16
2023-02-22T20:21:31.793Z,71.18
2023-02-22T20:24:10.712Z,71.34
2023-02-22T20:26:38.869Z,71.37
2023-02-22T20:29:09.694Z,71.42
2023-02-22T20:31:38.318Z,71.59
2023-02-22T20:34:09.810Z,71.54
2023-02-22T20:36:39.016Z,71.67
2023-02-22T20:39:13.626Z,71.70
2023-02-22T20:41:46.268Z,71.55
2023-02-22T20:44:15.357Z,71.99
2023-02-22T20:46:43.353Z,72.07
2023-02-22T20:49:15.127Z,72.25
2023-02-22T20:51:42.061Z,72.26
2023-02-22T20:54:12.346Z,72.12
2023-02-22T20:56:42.478Z,72.25
2023-02-22T20:59:12.823Z,72.23
2023-02-22T21:01:39.716Z,72.35
2023-02-22T21:04:08.214Z,72.45
2023-02-22T21:06:37.545Z,72.55
2023-02-22T21:09:08.057Z,72.64
2023-02-22T21:11:35.437Z,72.66
2023-02-22T21:14:02.979Z,72.78
2023-02-22T21:16:33.396Z,72.80
2023-02-22T21:19:02.822Z,72.84
2023-02-22T21:21:30.236Z,72.86
2023-02-22T21:24:01.795Z,73.00
2023-02-22T21:26:32.365Z,73.03
2023-02-22T21:29:06.765Z,72.96
2023-02-22T21:31:34.603Z,73.24
2023-02-22T21:34:01.893Z,73.26
2023-02-22T21:36:29.362Z,73.32
2023-02-22T21:38:58.565Z,73.25
2023-02-22T21:41:29.259Z,73.38
2023-02-22T21:43:58.447Z,73.49
2023-02-22T21:46:27.721Z,73.53
2023-02-22T21:48:57.930Z,73.72
2023-02-22T21:51:33.354Z,73.78
2023-02-22T21:54:07.111Z,73.88
2023-02-22T21:56:39.992Z,73.85
2023-02-22T21:59:11.758Z,73.92
2023-02-22T22:01:47.526Z,74.21
2023-02-22T22:04:18.990Z,74.01
2023-02-22T22:06:51.653Z,74.01
2023-02-22T22:09:19.690Z,74.20
2023-02-22T22:11:53.347Z,74.34
2023-02-22T22:14:24.000Z,74.55
2023-02-22T22:16:53.036Z,74.46
2023-02-22T22:19:20.266Z,74.42
2023-02-22T22:21:47.155Z,74.42
2023-02-22T22:24:13.829Z,74.48
2023-02-22T22:26:40.709Z,74.68
2023-02-22T22:29:10.448Z,74.84
2023-02-22T22:31:37.979Z,74.67
2023-02-22T22:34:05.295Z,75.05
2023-02-22T22:36:34.343Z,75.10
2023-02-22T22:39:01.282Z,74.78
2023-02-22T22:41:28.376Z,75.05
2023-02-22T22:43:55.742Z,75.00
2023-02-22T22:46:22.649Z,74.96
2023-02-22T22:48:49.453Z,75.19
2023-02-22T22:51:20.459Z,75.16
2023-02-22T22:53:48.861Z,75.29
2023-02-22T22:56:18.754Z,75.46
2023-02-22T22:58:50.700Z,75.32
2023-02-22T23:01:20.339Z,75.27
2023-02-22T23:03:55.205Z,75.40
2023-02-22T23:06:30.877Z,75.53
2023-02-22T23:09:02.594Z,75.46
2023-02-22T23:11:34.116Z,75.50
2023-02-22T23:14:03.883Z,75.59
2023-02-22T23:16:32.486Z,75.65
2023-02-22T23:18:59.605Z,75.71
2023-02-22T23:21:27.471Z,75.68
2023-02-22T23:23:59.035Z,75.83
2023-02-22T23:26:26.956Z,75.81
2023-02-22T23:28:57.645Z,75.90
2023-02-22T23:31:27.108Z,75.74
2023-02-22T23:33:55.674Z,75.86
2023-02-22T23:36:22.516Z,75.86
2023-02-22T23:38:49.095Z,75.82
2023-02-22T23:41:17.503Z,75.95
2023-02-22T23:43:45.388Z,75.96
2023-02-22T23:46:18.418Z,76.13
2023-02-22T23:48:54.794Z,76.19
2023-02-22T23:51:28.687Z,76.01
2023-02-22T23:53:56.775Z,75.90
2023-02-22T23:56:26.580Z,75.97
2023-02-22T23:58:57.631Z,76.17
